sensor_id;sensor_type;location;lat;lon;timestamp;P1;durP1;ratioP1;P2;durP2;ratioP2
11731;SDS011;5922;53.734;10.258;2022-10-16T00:01:08;6.60;;;6.00;;
11731;SDS011;5922;53.734;10.258;2022-10-16T00:03:36;8.47;;;5.30;;
11731;SDS011;5922;53.734;10.258;2022-10-16T00:06:08;6.07;;;5.33;;
11731;SDS011;5922;53.734;10.258;2022-10-16T00:08:38;8.07;;;5.20;;
11731;SDS011;5922;53.734;10.258;2022-10-16T00:11:09;8.60;;;4.90;;
11731;SDS011;5922;53.734;10.258;2022-10-16T00:13:38;4.97;;;4.47;;
11731;SDS011;5922;53.734;10.258;2022-10-16T00:16:05;5.43;;;4.60;;
11731;SDS011;5922;53.734;10.258;2022-10-16T00:18:35;6.80;;;4.60;;
11731;SDS011;5922;53.734;10.258;2022-10-16T00:21:06;5.47;;;4.53;;
11731;SDS011;5922;53.734;10.258;2022-10-16T00:23:39;7.27;;;4.30;;
11731;SDS011;5922;53.734;10.258;2022-10-16T00:26:10;7.33;;;4.53;;
11731;SDS011;5922;53.734;10.258;2022-10-16T00:28:41;7.30;;;4.47;;
11731;SDS011;5922;53.734;10.258;2022-10-16T00:31:11;4.53;;;4.13;;
11731;SDS011;5922;53.734;10.258;2022-10-16T00:33:39;8.03;;;4.63;;
11731;SDS011;5922;53.734;10.258;2022-10-16T00:36:12;9.30;;;4.77;;
11731;SDS011;5922;53.734;10.258;2022-10-16T00:38:45;4.87;;;4.40;;
11731;SDS011;5922;53.734;10.258;2022-10-16T00:41:13;4.70;;;4.20;;
11731;SDS011;5922;53.734;10.258;2022-10-16T00:43:42;6.50;;;4.90;;
11731;SDS011;5922;53.734;10.258;2022-10-16T00:46:12;5.23;;;4.53;;
11731;SDS011;5922;53.734;10.258;2022-10-16T00:48:40;5.47;;;4.70;;
11731;SDS011;5922;53.734;10.258;2022-10-16T00:51:08;5.77;;;4.37;;
11731;SDS011;5922;53.734;10.258;2022-10-16T00:53:38;4.63;;;4.17;;
11731;SDS011;5922;53.734;10.258;2022-10-16T00:56:10;5.30;;;4.07;;
11731;SDS011;5922;53.734;10.258;2022-10-16T00:58:39;3.93;;;3.57;;
11731;SDS011;5922;53.734;10.258;2022-10-16T01:01:10;5.93;;;3.70;;
11731;SDS011;5922;53.734;10.258;2022-10-16T01:03:40;5.83;;;4.23;;
11731;SDS011;5922;53.734;10.258;2022-10-16T01:06:23;4.07;;;3.40;;
11731;SDS011;5922;53.734;10.258;2022-10-16T01:09:01;5.27;;;3.40;;
11731;SDS011;5922;53.734;10.258;2022-10-16T01:11:48;4.47;;;3.53;;
11731;SDS011;5922;53.734;10.258;2022-10-16T01:14:22;8.37;;;3.37;;
11731;SDS011;5922;53.734;10.258;2022-10-16T01:16:53;9.77;;;3.47;;
11731;SDS011;5922;53.734;10.258;2022-10-16T01:19:38;3.87;;;3.20;;
11731;SDS011;5922;53.734;10.258;2022-10-16T01:22:20;5.93;;;3.57;;
11731;SDS011;5922;53.734;10.258;2022-10-16T01:24:54;3.60;;;2.80;;
11731;SDS011;5922;53.734;10.258;2022-10-16T01:27:24;4.80;;;2.80;;
11731;SDS011;5922;53.734;10.258;2022-10-16T01:29:55;4.37;;;2.90;;
11731;SDS011;5922;53.734;10.258;2022-10-16T01:32:27;4.90;;;2.93;;
11731;SDS011;5922;53.734;10.258;2022-10-16T01:34:59;6.27;;;2.43;;
11731;SDS011;5922;53.734;10.258;2022-10-16T01:37:31;5.73;;;2.50;;
11731;SDS011;5922;53.734;10.258;2022-10-16T01:40:06;5.97;;;2.83;;
11731;SDS011;5922;53.734;10.258;2022-10-16T01:42:37;3.87;;;2.40;;
11731;SDS011;5922;53.734;10.258;2022-10-16T01:45:07;5.03;;;2.60;;
11731;SDS011;5922;53.734;10.258;2022-10-16T01:47:39;3.10;;;2.30;;
11731;SDS011;5922;53.734;10.258;2022-10-16T01:50:08;4.90;;;2.13;;
11731;SDS011;5922;53.734;10.258;2022-10-16T01:52:48;4.60;;;2.53;;
11731;SDS011;5922;53.734;10.258;2022-10-16T01:55:17;5.70;;;2.17;;
11731;SDS011;5922;53.734;10.258;2022-10-16T01:57:49;6.70;;;2.70;;
11731;SDS011;5922;53.734;10.258;2022-10-16T02:00:20;3.43;;;2.20;;
11731;SDS011;5922;53.734;10.258;2022-10-16T02:02:49;5.20;;;2.30;;
11731;SDS011;5922;53.734;10.258;2022-10-16T02:05:23;4.17;;;2.40;;
11731;SDS011;5922;53.734;10.258;2022-10-16T02:07:54;3.83;;;2.20;;
11731;SDS011;5922;53.734;10.258;2022-10-16T02:10:22;4.27;;;2.50;;
11731;SDS011;5922;53.734;10.258;2022-10-16T02:12:53;6.27;;;2.30;;
11731;SDS011;5922;53.734;10.258;2022-10-16T02:15:32;3.97;;;2.17;;
11731;SDS011;5922;53.734;10.258;2022-10-16T02:18:01;2.77;;;2.13;;
11731;SDS011;5922;53.734;10.258;2022-10-16T02:20:30;4.50;;;2.60;;
11731;SDS011;5922;53.734;10.258;2022-10-16T02:23:03;3.30;;;2.33;;
11731;SDS011;5922;53.734;10.258;2022-10-16T02:25:34;6.20;;;2.63;;
11731;SDS011;5922;53.734;10.258;2022-10-16T02:28:12;3.87;;;2.33;;
11731;SDS011;5922;53.734;10.258;2022-10-16T02:30:43;5.20;;;2.40;;
11731;SDS011;5922;53.734;10.258;2022-10-16T02:33:13;3.50;;;2.73;;
11731;SDS011;5922;53.734;10.258;2022-10-16T02:35:44;5.53;;;2.47;;
11731;SDS011;5922;53.734;10.258;2022-10-16T02:38:13;5.60;;;2.53;;
11731;SDS011;5922;53.734;10.258;2022-10-16T02:40:41;3.30;;;2.20;;
11731;SDS011;5922;53.734;10.258;2022-10-16T02:43:08;3.17;;;2.40;;
11731;SDS011;5922;53.734;10.258;2022-10-16T02:45:40;4.83;;;2.20;;
11731;SDS011;5922;53.734;10.258;2022-10-16T02:48:08;2.77;;;2.40;;
11731;SDS011;5922;53.734;10.258;2022-10-16T02:50:35;4.70;;;2.47;;
11731;SDS011;5922;53.734;10.258;2022-10-16T02:53:02;6.60;;;2.57;;
11731;SDS011;5922;53.734;10.258;2022-10-16T02:55:30;7.50;;;2.60;;
11731;SDS011;5922;53.734;10.258;2022-10-16T02:58:02;3.23;;;2.50;;
11731;SDS011;5922;53.734;10.258;2022-10-16T03:00:29;6.50;;;2.40;;
11731;SDS011;5922;53.734;10.258;2022-10-16T03:02:58;5.50;;;2.70;;
11731;SDS011;5922;53.734;10.258;2022-10-16T03:05:33;4.67;;;2.33;;
11731;SDS011;5922;53.734;10.258;2022-10-16T03:08:02;4.00;;;2.47;;
11731;SDS011;5922;53.734;10.258;2022-10-16T03:10:31;8.13;;;2.30;;
11731;SDS011;5922;53.734;10.258;2022-10-16T03:13:03;3.00;;;2.20;;
11731;SDS011;5922;53.734;10.258;2022-10-16T03:15:33;3.00;;;2.00;;
11731;SDS011;5922;53.734;10.258;2022-10-16T03:18:05;3.70;;;2.53;;
11731;SDS011;5922;53.734;10.258;2022-10-16T03:20:51;3.10;;;2.37;;
11731;SDS011;5922;53.734;10.258;2022-10-16T03:23:19;3.90;;;2.20;;
11731;SDS011;5922;53.734;10.258;2022-10-16T03:25:54;3.90;;;2.20;;
11731;SDS011;5922;53.734;10.258;2022-10-16T03:28:25;4.47;;;2.10;;
11731;SDS011;5922;53.734;10.258;2022-10-16T03:30:58;6.57;;;1.90;;
11731;SDS011;5922;53.734;10.258;2022-10-16T03:33:32;5.70;;;2.40;;
11731;SDS011;5922;53.734;10.258;2022-10-16T03:35:59;4.40;;;2.10;;
11731;SDS011;5922;53.734;10.258;2022-10-16T03:38:28;2.30;;;2.10;;
11731;SDS011;5922;53.734;10.258;2022-10-16T03:40:58;4.17;;;2.30;;
11731;SDS011;5922;53.734;10.258;2022-10-16T03:43:29;2.30;;;2.10;;
11731;SDS011;5922;53.734;10.258;2022-10-16T03:45:59;6.37;;;2.57;;
11731;SDS011;5922;53.734;10.258;2022-10-16T03:48:28;6.30;;;2.10;;
11731;SDS011;5922;53.734;10.258;2022-10-16T03:51:03;4.63;;;2.03;;
11731;SDS011;5922;53.734;10.258;2022-10-16T03:53:37;3.10;;;2.17;;
11731;SDS011;5922;53.734;10.258;2022-10-16T03:56:13;6.20;;;2.10;;
11731;SDS011;5922;53.734;10.258;2022-10-16T03:58:41;2.87;;;1.73;;
11731;SDS011;5922;53.734;10.258;2022-10-16T04:01:11;3.67;;;2.00;;
11731;SDS011;5922;53.734;10.258;2022-10-16T04:03:39;2.90;;;1.80;;
11731;SDS011;5922;53.734;10.258;2022-10-16T04:06:12;2.47;;;1.83;;
11731;SDS011;5922;53.734;10.258;2022-10-16T04:08:39;4.60;;;1.67;;
11731;SDS011;5922;53.734;10.258;2022-10-16T04:11:12;5.63;;;2.30;;
11731;SDS011;5922;53.734;10.258;2022-10-16T04:13:40;4.33;;;2.50;;
11731;SDS011;5922;53.734;10.258;2022-10-16T04:16:08;7.63;;;2.07;;
11731;SDS011;5922;53.734;10.258;2022-10-16T04:18:39;4.17;;;1.80;;
11731;SDS011;5922;53.734;10.258;2022-10-16T04:21:11;3.33;;;1.63;;
11731;SDS011;5922;53.734;10.258;2022-10-16T04:23:38;2.70;;;1.80;;
11731;SDS011;5922;53.734;10.258;2022-10-16T04:26:11;4.67;;;1.97;;
11731;SDS011;5922;53.734;10.258;2022-10-16T04:28:42;4.40;;;1.67;;
11731;SDS011;5922;53.734;10.258;2022-10-16T04:31:11;5.07;;;2.00;;
11731;SDS011;5922;53.734;10.258;2022-10-16T04:33:43;4.50;;;2.37;;
11731;SDS011;5922;53.734;10.258;2022-10-16T04:36:12;4.50;;;2.10;;
11731;SDS011;5922;53.734;10.258;2022-10-16T04:38:46;4.37;;;2.30;;
11731;SDS011;5922;53.734;10.258;2022-10-16T04:41:18;2.17;;;1.67;;
11731;SDS011;5922;53.734;10.258;2022-10-16T04:43:46;5.53;;;2.27;;
11731;SDS011;5922;53.734;10.258;2022-10-16T04:46:22;3.57;;;1.77;;
11731;SDS011;5922;53.734;10.258;2022-10-16T04:48:51;5.53;;;2.10;;
11731;SDS011;5922;53.734;10.258;2022-10-16T04:51:23;5.80;;;1.80;;
11731;SDS011;5922;53.734;10.258;2022-10-16T04:53:53;3.70;;;1.83;;
11731;SDS011;5922;53.734;10.258;2022-10-16T04:56:24;5.00;;;1.90;;
11731;SDS011;5922;53.734;10.258;2022-10-16T04:58:54;2.70;;;2.03;;
11731;SDS011;5922;53.734;10.258;2022-10-16T05:01:25;2.63;;;1.70;;
11731;SDS011;5922;53.734;10.258;2022-10-16T05:03:54;3.60;;;1.70;;
11731;SDS011;5922;53.734;10.258;2022-10-16T05:06:31;3.63;;;1.57;;
11731;SDS011;5922;53.734;10.258;2022-10-16T05:09:04;4.97;;;2.20;;
11731;SDS011;5922;53.734;10.258;2022-10-16T05:11:34;4.37;;;1.93;;
11731;SDS011;5922;53.734;10.258;2022-10-16T05:14:07;5.20;;;1.87;;
11731;SDS011;5922;53.734;10.258;2022-10-16T05:16:39;3.03;;;1.90;;
11731;SDS011;5922;53.734;10.258;2022-10-16T05:19:07;4.77;;;2.13;;
11731;SDS011;5922;53.734;10.258;2022-10-16T05:21:38;3.80;;;2.13;;
11731;SDS011;5922;53.734;10.258;2022-10-16T05:24:08;6.03;;;2.10;;
11731;SDS011;5922;53.734;10.258;2022-10-16T05:26:40;2.80;;;1.80;;
11731;SDS011;5922;53.734;10.258;2022-10-16T05:29:23;6.03;;;2.23;;
11731;SDS011;5922;53.734;10.258;2022-10-16T05:31:51;4.27;;;1.97;;
11731;SDS011;5922;53.734;10.258;2022-10-16T05:34:21;2.83;;;2.10;;
11731;SDS011;5922;53.734;10.258;2022-10-16T05:36:51;3.83;;;1.70;;
11731;SDS011;5922;53.734;10.258;2022-10-16T05:39:19;2.20;;;1.57;;
11731;SDS011;5922;53.734;10.258;2022-10-16T05:41:53;3.37;;;2.03;;
11731;SDS011;5922;53.734;10.258;2022-10-16T05:44:21;6.57;;;1.90;;
11731;SDS011;5922;53.734;10.258;2022-10-16T05:46:48;4.37;;;1.93;;
11731;SDS011;5922;53.734;10.258;2022-10-16T05:49:18;2.43;;;2.10;;
11731;SDS011;5922;53.734;10.258;2022-10-16T05:51:50;6.13;;;2.20;;
11731;SDS011;5922;53.734;10.258;2022-10-16T05:54:20;5.47;;;2.00;;
11731;SDS011;5922;53.734;10.258;2022-10-16T05:57:01;4.70;;;2.60;;
11731;SDS011;5922;53.734;10.258;2022-10-16T05:59:35;3.13;;;2.00;;
11731;SDS011;5922;53.734;10.258;2022-10-16T06:02:03;4.43;;;1.90;;
11731;SDS011;5922;53.734;10.258;2022-10-16T06:04:30;4.80;;;2.20;;
11731;SDS011;5922;53.734;10.258;2022-10-16T06:06:58;5.43;;;2.10;;
11731;SDS011;5922;53.734;10.258;2022-10-16T06:09:28;5.73;;;2.27;;
11731;SDS011;5922;53.734;10.258;2022-10-16T06:11:55;7.30;;;2.10;;
11731;SDS011;5922;53.734;10.258;2022-10-16T06:14:22;4.97;;;2.50;;
11731;SDS011;5922;53.734;10.258;2022-10-16T06:16:49;6.97;;;2.67;;
11731;SDS011;5922;53.734;10.258;2022-10-16T06:19:17;4.77;;;2.20;;
11731;SDS011;5922;53.734;10.258;2022-10-16T06:21:46;6.77;;;2.20;;
11731;SDS011;5922;53.734;10.258;2022-10-16T06:24:14;4.83;;;2.30;;
11731;SDS011;5922;53.734;10.258;2022-10-16T06:26:46;4.13;;;2.23;;
11731;SDS011;5922;53.734;10.258;2022-10-16T06:29:13;5.80;;;2.17;;
11731;SDS011;5922;53.734;10.258;2022-10-16T06:31:42;4.73;;;2.30;;
11731;SDS011;5922;53.734;10.258;2022-10-16T06:34:11;2.67;;;1.80;;
11731;SDS011;5922;53.734;10.258;2022-10-16T06:36:39;3.37;;;2.13;;
11731;SDS011;5922;53.734;10.258;2022-10-16T06:39:08;3.80;;;2.00;;
11731;SDS011;5922;53.734;10.258;2022-10-16T06:41:35;8.37;;;2.10;;
11731;SDS011;5922;53.734;10.258;2022-10-16T06:44:06;4.53;;;2.33;;
11731;SDS011;5922;53.734;10.258;2022-10-16T06:46:39;4.97;;;2.00;;
11731;SDS011;5922;53.734;10.258;2022-10-16T06:49:06;5.63;;;2.47;;
11731;SDS011;5922;53.734;10.258;2022-10-16T06:51:46;3.13;;;2.20;;
11731;SDS011;5922;53.734;10.258;2022-10-16T06:54:14;3.90;;;2.37;;
11731;SDS011;5922;53.734;10.258;2022-10-16T06:56:41;5.53;;;2.23;;
11731;SDS011;5922;53.734;10.258;2022-10-16T06:59:12;4.67;;;2.50;;
11731;SDS011;5922;53.734;10.258;2022-10-16T07:01:41;4.83;;;2.33;;
11731;SDS011;5922;53.734;10.258;2022-10-16T07:04:09;5.03;;;2.00;;
11731;SDS011;5922;53.734;10.258;2022-10-16T07:06:36;8.17;;;2.07;;
11731;SDS011;5922;53.734;10.258;2022-10-16T07:09:04;4.73;;;2.13;;
11731;SDS011;5922;53.734;10.258;2022-10-16T07:11:32;8.57;;;2.43;;
11731;SDS011;5922;53.734;10.258;2022-10-16T07:13:59;3.27;;;2.23;;
11731;SDS011;5922;53.734;10.258;2022-10-16T07:16:29;4.77;;;2.37;;
11731;SDS011;5922;53.734;10.258;2022-10-16T07:19:02;4.53;;;2.50;;
11731;SDS011;5922;53.734;10.258;2022-10-16T07:21:30;5.13;;;2.47;;
11731;SDS011;5922;53.734;10.258;2022-10-16T07:24:02;3.93;;;2.30;;
11731;SDS011;5922;53.734;10.258;2022-10-16T07:26:30;3.70;;;2.23;;
11731;SDS011;5922;53.734;10.258;2022-10-16T07:28:58;5.97;;;2.60;;
11731;SDS011;5922;53.734;10.258;2022-10-16T07:31:26;5.00;;;2.47;;
11731;SDS011;5922;53.734;10.258;2022-10-16T07:33:55;4.83;;;2.03;;
11731;SDS011;5922;53.734;10.258;2022-10-16T07:36:30;4.47;;;2.53;;
11731;SDS011;5922;53.734;10.258;2022-10-16T07:39:07;5.57;;;2.23;;
11731;SDS011;5922;53.734;10.258;2022-10-16T07:41:41;5.83;;;2.43;;
11731;SDS011;5922;53.734;10.258;2022-10-16T07:44:08;5.10;;;2.63;;
11731;SDS011;5922;53.734;10.258;2022-10-16T07:46:35;6.00;;;2.50;;
11731;SDS011;5922;53.734;10.258;2022-10-16T07:49:04;7.67;;;2.47;;
11731;SDS011;5922;53.734;10.258;2022-10-16T07:51:31;5.27;;;2.27;;
11731;SDS011;5922;53.734;10.258;2022-10-16T07:53:59;3.50;;;2.47;;
11731;SDS011;5922;53.734;10.258;2022-10-16T07:56:26;5.00;;;2.70;;
11731;SDS011;5922;53.734;10.258;2022-10-16T07:58:53;9.90;;;2.40;;
11731;SDS011;5922;53.734;10.258;2022-10-16T08:01:21;4.23;;;2.80;;
11731;SDS011;5922;53.734;10.258;2022-10-16T08:03:49;4.73;;;2.20;;
11731;SDS011;5922;53.734;10.258;2022-10-16T08:06:19;3.37;;;2.30;;
11731;SDS011;5922;53.734;10.258;2022-10-16T08:08:46;4.10;;;2.23;;
11731;SDS011;5922;53.734;10.258;2022-10-16T08:11:13;6.13;;;2.70;;
11731;SDS011;5922;53.734;10.258;2022-10-16T08:13:41;2.83;;;2.30;;
11731;SDS011;5922;53.734;10.258;2022-10-16T08:16:08;4.10;;;2.47;;
11731;SDS011;5922;53.734;10.258;2022-10-16T08:18:36;2.87;;;2.23;;
11731;SDS011;5922;53.734;10.258;2022-10-16T08:21:04;4.83;;;2.40;;
11731;SDS011;5922;53.734;10.258;2022-10-16T08:23:33;4.40;;;2.27;;
11731;SDS011;5922;53.734;10.258;2022-10-16T08:26:04;3.97;;;2.40;;
11731;SDS011;5922;53.734;10.258;2022-10-16T08:28:32;6.23;;;2.57;;
11731;SDS011;5922;53.734;10.258;2022-10-16T08:31:06;3.27;;;2.30;;
11731;SDS011;5922;53.734;10.258;2022-10-16T08:33:33;5.50;;;2.40;;
11731;SDS011;5922;53.734;10.258;2022-10-16T08:36:01;4.30;;;2.50;;
11731;SDS011;5922;53.734;10.258;2022-10-16T08:38:28;4.27;;;2.30;;
11731;SDS011;5922;53.734;10.258;2022-10-16T08:41:00;3.67;;;2.10;;
11731;SDS011;5922;53.734;10.258;2022-10-16T08:43:32;4.00;;;2.30;;
11731;SDS011;5922;53.734;10.258;2022-10-16T08:46:16;4.03;;;2.17;;
11731;SDS011;5922;53.734;10.258;2022-10-16T08:48:48;4.73;;;2.40;;
11731;SDS011;5922;53.734;10.258;2022-10-16T08:51:18;3.67;;;2.07;;
11731;SDS011;5922;53.734;10.258;2022-10-16T08:53:46;4.37;;;2.20;;
11731;SDS011;5922;53.734;10.258;2022-10-16T08:56:18;2.80;;;1.90;;
11731;SDS011;5922;53.734;10.258;2022-10-16T08:58:45;3.50;;;2.17;;
11731;SDS011;5922;53.734;10.258;2022-10-16T09:01:14;2.43;;;2.23;;
11731;SDS011;5922;53.734;10.258;2022-10-16T09:04:01;2.60;;;2.00;;
11731;SDS011;5922;53.734;10.258;2022-10-16T09:06:34;3.67;;;2.10;;
11731;SDS011;5922;53.734;10.258;2022-10-16T09:09:11;5.10;;;2.43;;
11731;SDS011;5922;53.734;10.258;2022-10-16T09:11:44;4.07;;;2.10;;
11731;SDS011;5922;53.734;10.258;2022-10-16T09:14:18;3.50;;;2.10;;
11731;SDS011;5922;53.734;10.258;2022-10-16T09:16:48;2.63;;;2.17;;
11731;SDS011;5922;53.734;10.258;2022-10-16T09:19:19;5.43;;;1.87;;
11731;SDS011;5922;53.734;10.258;2022-10-16T09:21:54;3.27;;;2.00;;
11731;SDS011;5922;53.734;10.258;2022-10-16T09:24:24;3.27;;;1.73;;
11731;SDS011;5922;53.734;10.258;2022-10-16T09:26:53;4.23;;;1.90;;
11731;SDS011;5922;53.734;10.258;2022-10-16T09:29:27;7.23;;;1.90;;
11731;SDS011;5922;53.734;10.258;2022-10-16T09:31:54;3.03;;;1.80;;
11731;SDS011;5922;53.734;10.258;2022-10-16T09:34:25;4.53;;;2.30;;
11731;SDS011;5922;53.734;10.258;2022-10-16T09:36:55;4.87;;;2.00;;
11731;SDS011;5922;53.734;10.258;2022-10-16T09:39:22;4.67;;;2.10;;
11731;SDS011;5922;53.734;10.258;2022-10-16T09:41:50;3.60;;;2.00;;
11731;SDS011;5922;53.734;10.258;2022-10-16T09:44:21;5.97;;;1.70;;
11731;SDS011;5922;53.734;10.258;2022-10-16T09:47:00;3.33;;;1.83;;
11731;SDS011;5922;53.734;10.258;2022-10-16T09:49:27;6.23;;;2.10;;
11731;SDS011;5922;53.734;10.258;2022-10-16T09:52:02;3.83;;;1.70;;
11731;SDS011;5922;53.734;10.258;2022-10-16T09:54:29;3.03;;;1.60;;
11731;SDS011;5922;53.734;10.258;2022-10-16T09:57:03;4.10;;;1.80;;
11731;SDS011;5922;53.734;10.258;2022-10-16T09:59:32;5.03;;;2.07;;
11731;SDS011;5922;53.734;10.258;2022-10-16T10:02:01;3.53;;;1.63;;
11731;SDS011;5922;53.734;10.258;2022-10-16T10:04:37;3.77;;;1.80;;
11731;SDS011;5922;53.734;10.258;2022-10-16T10:07:05;2.67;;;1.57;;
11731;SDS011;5922;53.734;10.258;2022-10-16T10:09:32;3.87;;;1.90;;
11731;SDS011;5922;53.734;10.258;2022-10-16T10:12:01;3.23;;;1.70;;
11731;SDS011;5922;53.734;10.258;2022-10-16T10:14:30;3.47;;;1.90;;
11731;SDS011;5922;53.734;10.258;2022-10-16T10:17:09;3.00;;;1.40;;
11731;SDS011;5922;53.734;10.258;2022-10-16T10:19:38;6.27;;;1.97;;
11731;SDS011;5922;53.734;10.258;2022-10-16T10:22:13;2.40;;;1.50;;
11731;SDS011;5922;53.734;10.258;2022-10-16T10:24:40;6.10;;;2.00;;
11731;SDS011;5922;53.734;10.258;2022-10-16T10:27:09;3.50;;;1.67;;
11731;SDS011;5922;53.734;10.258;2022-10-16T10:29:42;3.53;;;1.63;;
11731;SDS011;5922;53.734;10.258;2022-10-16T10:32:19;5.73;;;1.83;;
11731;SDS011;5922;53.734;10.258;2022-10-16T10:34:52;5.33;;;1.70;;
11731;SDS011;5922;53.734;10.258;2022-10-16T10:37:29;5.37;;;1.60;;
11731;SDS011;5922;53.734;10.258;2022-10-16T10:40:00;3.40;;;1.70;;
11731;SDS011;5922;53.734;10.258;2022-10-16T10:42:32;3.50;;;1.50;;
11731;SDS011;5922;53.734;10.258;2022-10-16T10:45:08;4.30;;;1.60;;
11731;SDS011;5922;53.734;10.258;2022-10-16T10:47:42;3.67;;;1.63;;
11731;SDS011;5922;53.734;10.258;2022-10-16T10:50:12;4.73;;;1.90;;
11731;SDS011;5922;53.734;10.258;2022-10-16T10:52:48;4.50;;;1.50;;
11731;SDS011;5922;53.734;10.258;2022-10-16T10:55:20;6.37;;;1.80;;
11731;SDS011;5922;53.734;10.258;2022-10-16T10:58:01;2.13;;;1.70;;
11731;SDS011;5922;53.734;10.258;2022-10-16T11:00:35;3.07;;;1.43;;
11731;SDS011;5922;53.734;10.258;2022-10-16T11:03:11;4.27;;;1.70;;
11731;SDS011;5922;53.734;10.258;2022-10-16T11:05:41;4.80;;;1.70;;
11731;SDS011;5922;53.734;10.258;2022-10-16T11:08:11;5.77;;;1.73;;
11731;SDS011;5922;53.734;10.258;2022-10-16T11:10:42;5.37;;;1.43;;
11731;SDS011;5922;53.734;10.258;2022-10-16T11:13:15;3.00;;;1.50;;
11731;SDS011;5922;53.734;10.258;2022-10-16T11:15:44;3.60;;;1.77;;
11731;SDS011;5922;53.734;10.258;2022-10-16T11:18:15;5.33;;;1.50;;
11731;SDS011;5922;53.734;10.258;2022-10-16T11:20:45;7.43;;;1.40;;
11731;SDS011;5922;53.734;10.258;2022-10-16T11:23:14;2.80;;;1.60;;
11731;SDS011;5922;53.734;10.258;2022-10-16T11:25:43;5.20;;;1.90;;
11731;SDS011;5922;53.734;10.258;2022-10-16T11:28:11;2.90;;;1.17;;
11731;SDS011;5922;53.734;10.258;2022-10-16T11:30:40;3.60;;;1.50;;
11731;SDS011;5922;53.734;10.258;2022-10-16T11:33:13;2.83;;;1.20;;
11731;SDS011;5922;53.734;10.258;2022-10-16T11:35:49;4.87;;;1.47;;
11731;SDS011;5922;53.734;10.258;2022-10-16T11:38:20;4.83;;;1.57;;
11731;SDS011;5922;53.734;10.258;2022-10-16T11:40:53;6.33;;;1.70;;
11731;SDS011;5922;53.734;10.258;2022-10-16T11:43:24;2.80;;;1.30;;
11731;SDS011;5922;53.734;10.258;2022-10-16T11:45:52;3.60;;;1.43;;
11731;SDS011;5922;53.734;10.258;2022-10-16T11:48:23;2.17;;;1.20;;
11731;SDS011;5922;53.734;10.258;2022-10-16T11:50:53;7.37;;;1.60;;
11731;SDS011;5922;53.734;10.258;2022-10-16T11:53:28;3.67;;;1.43;;
11731;SDS011;5922;53.734;10.258;2022-10-16T11:55:58;2.30;;;1.20;;
11731;SDS011;5922;53.734;10.258;2022-10-16T11:58:27;4.47;;;1.40;;
11731;SDS011;5922;53.734;10.258;2022-10-16T12:00:58;3.63;;;1.43;;
11731;SDS011;5922;53.734;10.258;2022-10-16T12:03:27;4.73;;;1.60;;
11731;SDS011;5922;53.734;10.258;2022-10-16T12:08:49;2.13;;;1.20;;
11731;SDS011;5922;53.734;10.258;2022-10-16T12:11:23;5.83;;;1.23;;
11731;SDS011;5922;53.734;10.258;2022-10-16T12:14:03;3.03;;;1.30;;
11731;SDS011;5922;53.734;10.258;2022-10-16T12:16:38;3.20;;;1.20;;
11731;SDS011;5922;53.734;10.258;2022-10-16T12:19:20;4.03;;;1.30;;
11731;SDS011;5922;53.734;10.258;2022-10-16T12:21:51;5.13;;;1.47;;
11731;SDS011;5922;53.734;10.258;2022-10-16T12:24:26;5.20;;;1.43;;
11731;SDS011;5922;53.734;10.258;2022-10-16T12:26:55;5.00;;;1.60;;
11731;SDS011;5922;53.734;10.258;2022-10-16T12:29:28;3.63;;;1.50;;
11731;SDS011;5922;53.734;10.258;2022-10-16T12:31:58;4.07;;;1.53;;
11731;SDS011;5922;53.734;10.258;2022-10-16T12:34:36;3.63;;;1.33;;
11731;SDS011;5922;53.734;10.258;2022-10-16T12:37:14;5.77;;;1.50;;
11731;SDS011;5922;53.734;10.258;2022-10-16T12:39:57;3.10;;;1.23;;
11731;SDS011;5922;53.734;10.258;2022-10-16T12:42:44;3.20;;;1.50;;
11731;SDS011;5922;53.734;10.258;2022-10-16T12:45:27;4.40;;;1.30;;
11731;SDS011;5922;53.734;10.258;2022-10-16T12:48:04;3.60;;;1.37;;
11731;SDS011;5922;53.734;10.258;2022-10-16T12:50:36;6.00;;;1.60;;
11731;SDS011;5922;53.734;10.258;2022-10-16T12:53:19;3.33;;;1.50;;
11731;SDS011;5922;53.734;10.258;2022-10-16T12:56:08;3.37;;;1.50;;
11731;SDS011;5922;53.734;10.258;2022-10-16T12:58:56;4.97;;;1.60;;
11731;SDS011;5922;53.734;10.258;2022-10-16T13:01:38;3.83;;;1.70;;
11731;SDS011;5922;53.734;10.258;2022-10-16T13:04:29;4.30;;;1.57;;
11731;SDS011;5922;53.734;10.258;2022-10-16T13:07:15;2.77;;;1.53;;
11731;SDS011;5922;53.734;10.258;2022-10-16T13:09:50;4.43;;;1.67;;
11731;SDS011;5922;53.734;10.258;2022-10-16T13:12:40;3.07;;;1.67;;
11731;SDS011;5922;53.734;10.258;2022-10-16T13:15:58;4.43;;;1.40;;
11731;SDS011;5922;53.734;10.258;2022-10-16T13:18:42;5.00;;;1.50;;
11731;SDS011;5922;53.734;10.258;2022-10-16T13:21:33;5.43;;;1.53;;
11731;SDS011;5922;53.734;10.258;2022-10-16T13:24:19;7.00;;;1.40;;
11731;SDS011;5922;53.734;10.258;2022-10-16T13:27:10;4.77;;;1.73;;
11731;SDS011;5922;53.734;10.258;2022-10-16T13:29:54;6.17;;;1.40;;
11731;SDS011;5922;53.734;10.258;2022-10-16T13:32:36;5.53;;;1.43;;
11731;SDS011;5922;53.734;10.258;2022-10-16T13:35:18;2.97;;;1.17;;
11731;SDS011;5922;53.734;10.258;2022-10-16T13:38:13;6.63;;;1.50;;
11731;SDS011;5922;53.734;10.258;2022-10-16T13:40:54;3.77;;;1.50;;
11731;SDS011;5922;53.734;10.258;2022-10-16T13:43:33;4.77;;;1.63;;
11731;SDS011;5922;53.734;10.258;2022-10-16T13:46:13;4.53;;;1.43;;
11731;SDS011;5922;53.734;10.258;2022-10-16T13:48:57;4.33;;;1.50;;
11731;SDS011;5922;53.734;10.258;2022-10-16T13:51:41;5.30;;;1.40;;
11731;SDS011;5922;53.734;10.258;2022-10-16T13:54:23;4.93;;;1.60;;
11731;SDS011;5922;53.734;10.258;2022-10-16T13:57:07;7.13;;;1.90;;
11731;SDS011;5922;53.734;10.258;2022-10-16T13:59:48;6.00;;;1.70;;
11731;SDS011;5922;53.734;10.258;2022-10-16T14:02:33;2.40;;;1.37;;
11731;SDS011;5922;53.734;10.258;2022-10-16T14:05:08;2.23;;;1.33;;
11731;SDS011;5922;53.734;10.258;2022-10-16T14:07:50;2.77;;;1.40;;
11731;SDS011;5922;53.734;10.258;2022-10-16T14:10:25;5.43;;;1.50;;
11731;SDS011;5922;53.734;10.258;2022-10-16T14:12:59;4.83;;;1.57;;
11731;SDS011;5922;53.734;10.258;2022-10-16T14:15:37;5.20;;;1.47;;
11731;SDS011;5922;53.734;10.258;2022-10-16T14:18:25;3.90;;;1.73;;
11731;SDS011;5922;53.734;10.258;2022-10-16T14:21:15;4.27;;;1.87;;
11731;SDS011;5922;53.734;10.258;2022-10-16T14:24:09;5.43;;;1.47;;
11731;SDS011;5922;53.734;10.258;2022-10-16T14:27:02;3.53;;;1.97;;
11731;SDS011;5922;53.734;10.258;2022-10-16T14:30:10;2.90;;;1.70;;
11731;SDS011;5922;53.734;10.258;2022-10-16T14:32:58;4.60;;;1.77;;
11731;SDS011;5922;53.734;10.258;2022-10-16T14:35:43;6.63;;;1.50;;
11731;SDS011;5922;53.734;10.258;2022-10-16T14:38:16;4.77;;;1.50;;
11731;SDS011;5922;53.734;10.258;2022-10-16T14:40:59;4.97;;;1.70;;
11731;SDS011;5922;53.734;10.258;2022-10-16T14:43:39;4.63;;;1.53;;
11731;SDS011;5922;53.734;10.258;2022-10-16T14:46:16;4.80;;;1.67;;
11731;SDS011;5922;53.734;10.258;2022-10-16T14:48:54;3.27;;;1.43;;
11731;SDS011;5922;53.734;10.258;2022-10-16T14:51:31;5.43;;;1.47;;
11731;SDS011;5922;53.734;10.258;2022-10-16T14:54:14;5.80;;;1.53;;
11731;SDS011;5922;53.734;10.258;2022-10-16T14:56:55;4.67;;;1.53;;
11731;SDS011;5922;53.734;10.258;2022-10-16T14:59:30;6.63;;;1.67;;
11731;SDS011;5922;53.734;10.258;2022-10-16T15:02:09;5.20;;;1.70;;
11731;SDS011;5922;53.734;10.258;2022-10-16T15:10:45;3.13;;;1.80;;
11731;SDS011;5922;53.734;10.258;2022-10-16T15:13:18;5.90;;;1.90;;
11731;SDS011;5922;53.734;10.258;2022-10-16T15:16:00;6.30;;;1.83;;
11731;SDS011;5922;53.734;10.258;2022-10-16T15:18:44;10.87;;;2.17;;
11731;SDS011;5922;53.734;10.258;2022-10-16T15:21:29;5.63;;;1.70;;
11731;SDS011;5922;53.734;10.258;2022-10-16T15:27:11;4.67;;;1.80;;
11731;SDS011;5922;53.734;10.258;2022-10-16T15:29:45;8.00;;;1.77;;
11731;SDS011;5922;53.734;10.258;2022-10-16T15:32:22;7.33;;;1.90;;
11731;SDS011;5922;53.734;10.258;2022-10-16T15:35:09;5.63;;;1.70;;